sensor_id;sensor_type;location;lat;lon;timestamp;P1;durP1;ratioP1;P2;durP2;ratioP2
62588;SDS011;58504;48.770;9.148;2022-10-03T00:02:38;0.50;;;0.47;;
62588;SDS011;58504;48.770;9.148;2022-10-03T00:05:22;0.40;;;0.40;;
62588;SDS011;58504;48.770;9.148;2022-10-03T00:08:03;0.40;;;0.40;;
62588;SDS011;58504;48.770;9.148;2022-10-03T00:10:44;0.50;;;0.50;;
62588;SDS011;58504;48.770;9.148;2022-10-03T00:13:19;0.40;;;0.40;;
62588;SDS011;58504;48.770;9.148;2022-10-03T00:15:53;0.60;;;0.60;;
62588;SDS011;58504;48.770;9.148;2022-10-03T00:21:16;0.47;;;0.47;;
62588;SDS011;58504;48.770;9.148;2022-10-03T00:23:55;0.40;;;0.40;;
62588;SDS011;58504;48.770;9.148;2022-10-03T00:26:28;0.50;;;0.50;;
62588;SDS011;58504;48.770;9.148;2022-10-03T00:29:25;0.40;;;0.32;;
62588;SDS011;58504;48.770;9.148;2022-10-03T00:32:03;0.43;;;0.43;;
62588;SDS011;58504;48.770;9.148;2022-10-03T00:34:39;0.25;;;0.22;;
62588;SDS011;58504;48.770;9.148;2022-10-03T00:37:18;0.35;;;0.35;;
62588;SDS011;58504;48.770;9.148;2022-10-03T00:39:54;0.63;;;0.50;;
62588;SDS011;58504;48.770;9.148;2022-10-03T00:48:46;0.30;;;0.30;;
62588;SDS011;58504;48.770;9.148;2022-10-03T00:51:42;0.25;;;0.22;;
62588;SDS011;58504;48.770;9.148;2022-10-03T00:54:25;0.65;;;0.40;;
62588;SDS011;58504;48.770;9.148;2022-10-03T00:57:06;0.20;;;0.20;;
62588;SDS011;58504;48.770;9.148;2022-10-03T01:00:00;0.32;;;0.30;;
62588;SDS011;58504;48.770;9.148;2022-10-03T01:02:43;0.30;;;0.30;;
62588;SDS011;58504;48.770;9.148;2022-10-03T01:05:16;0.30;;;0.30;;
62588;SDS011;58504;48.770;9.148;2022-10-03T01:07:56;0.30;;;0.30;;
62588;SDS011;58504;48.770;9.148;2022-10-03T01:10:32;0.50;;;0.50;;
62588;SDS011;58504;48.770;9.148;2022-10-03T01:13:13;0.75;;;0.47;;
62588;SDS011;58504;48.770;9.148;2022-10-03T01:15:51;0.40;;;0.40;;
62588;SDS011;58504;48.770;9.148;2022-10-03T01:18:30;0.52;;;0.45;;
62588;SDS011;58504;48.770;9.148;2022-10-03T01:21:07;0.38;;;0.38;;
62588;SDS011;58504;48.770;9.148;2022-10-03T01:23:55;0.15;;;0.15;;
62588;SDS011;58504;48.770;9.148;2022-10-03T01:26:52;0.40;;;0.40;;
62588;SDS011;58504;48.770;9.148;2022-10-03T01:29:25;0.35;;;0.30;;
62588;SDS011;58504;48.770;9.148;2022-10-03T01:32:30;0.47;;;0.40;;
62588;SDS011;58504;48.770;9.148;2022-10-03T01:35:05;0.35;;;0.35;;
62588;SDS011;58504;48.770;9.148;2022-10-03T01:37:42;0.38;;;0.38;;
62588;SDS011;58504;48.770;9.148;2022-10-03T01:40:18;0.40;;;0.40;;
62588;SDS011;58504;48.770;9.148;2022-10-03T01:42:54;0.43;;;0.43;;
62588;SDS011;58504;48.770;9.148;2022-10-03T01:45:30;0.40;;;0.40;;
62588;SDS011;58504;48.770;9.148;2022-10-03T01:48:06;0.28;;;0.28;;
62588;SDS011;58504;48.770;9.148;2022-10-03T01:50:42;0.30;;;0.30;;
62588;SDS011;58504;48.770;9.148;2022-10-03T01:53:18;0.38;;;0.38;;
62588;SDS011;58504;48.770;9.148;2022-10-03T01:55:53;0.40;;;0.40;;
62588;SDS011;58504;48.770;9.148;2022-10-03T01:58:25;0.52;;;0.40;;
62588;SDS011;58504;48.770;9.148;2022-10-03T02:00:57;0.38;;;0.38;;
62588;SDS011;58504;48.770;9.148;2022-10-03T02:03:33;0.30;;;0.30;;
62588;SDS011;58504;48.770;9.148;2022-10-03T02:06:05;0.40;;;0.40;;
62588;SDS011;58504;48.770;9.148;2022-10-03T02:08:43;0.32;;;0.32;;
62588;SDS011;58504;48.770;9.148;2022-10-03T02:11:20;0.40;;;0.40;;
62588;SDS011;58504;48.770;9.148;2022-10-03T02:13:57;0.68;;;0.47;;
62588;SDS011;58504;48.770;9.148;2022-10-03T02:16:35;0.22;;;0.22;;
62588;SDS011;58504;48.770;9.148;2022-10-03T02:19:10;0.60;;;0.60;;
62588;SDS011;58504;48.770;9.148;2022-10-03T02:21:46;0.43;;;0.40;;
62588;SDS011;58504;48.770;9.148;2022-10-03T02:24:19;0.40;;;0.40;;
62588;SDS011;58504;48.770;9.148;2022-10-03T02:30:11;0.60;;;0.60;;
62588;SDS011;58504;48.770;9.148;2022-10-03T02:32:58;0.70;;;0.70;;
62588;SDS011;58504;48.770;9.148;2022-10-03T02:35:55;0.40;;;0.40;;
62588;SDS011;58504;48.770;9.148;2022-10-03T02:38:52;0.28;;;0.28;;
62588;SDS011;58504;48.770;9.148;2022-10-03T02:41:46;0.50;;;0.50;;
62588;SDS011;58504;48.770;9.148;2022-10-03T02:44:46;0.17;;;0.17;;
62588;SDS011;58504;48.770;9.148;2022-10-03T02:47:46;0.60;;;0.40;;
62588;SDS011;58504;48.770;9.148;2022-10-03T02:50:50;0.15;;;0.15;;
62588;SDS011;58504;48.770;9.148;2022-10-03T03:00:08;0.40;;;0.40;;
62588;SDS011;58504;48.770;9.148;2022-10-03T03:08:52;0.28;;;0.28;;
62588;SDS011;58504;48.770;9.148;2022-10-03T03:17:36;0.28;;;0.28;;
62588;SDS011;58504;48.770;9.148;2022-10-03T03:20:21;0.30;;;0.20;;
62588;SDS011;58504;48.770;9.148;2022-10-03T03:26:22;0.40;;;0.40;;
62588;SDS011;58504;48.770;9.148;2022-10-03T03:29:01;0.45;;;0.45;;
62588;SDS011;58504;48.770;9.148;2022-10-03T03:31:39;0.60;;;0.60;;
62588;SDS011;58504;48.770;9.148;2022-10-03T03:34:12;0.45;;;0.30;;
62588;SDS011;58504;48.770;9.148;2022-10-03T03:36:46;0.47;;;0.20;;
62588;SDS011;58504;48.770;9.148;2022-10-03T03:39:32;0.35;;;0.35;;
62588;SDS011;58504;48.770;9.148;2022-10-03T03:42:20;0.30;;;0.30;;
62588;SDS011;58504;48.770;9.148;2022-10-03T03:45:00;0.60;;;0.50;;
62588;SDS011;58504;48.770;9.148;2022-10-03T03:47:42;0.30;;;0.30;;
62588;SDS011;58504;48.770;9.148;2022-10-03T03:50:38;0.20;;;0.20;;
62588;SDS011;58504;48.770;9.148;2022-10-03T03:53:26;0.20;;;0.20;;
62588;SDS011;58504;48.770;9.148;2022-10-03T03:56:12;0.30;;;0.30;;
62588;SDS011;58504;48.770;9.148;2022-10-03T03:58:58;0.32;;;0.32;;
62588;SDS011;58504;48.770;9.148;2022-10-03T04:01:40;0.75;;;0.50;;
62588;SDS011;58504;48.770;9.148;2022-10-03T04:04:29;0.60;;;0.60;;
62588;SDS011;58504;48.770;9.148;2022-10-03T04:07:06;0.38;;;0.38;;
62588;SDS011;58504;48.770;9.148;2022-10-03T04:09:47;0.57;;;0.20;;
62588;SDS011;58504;48.770;9.148;2022-10-03T04:12:31;0.32;;;0.32;;
62588;SDS011;58504;48.770;9.148;2022-10-03T04:18:27;0.35;;;0.35;;
62588;SDS011;58504;48.770;9.148;2022-10-03T04:24:26;0.55;;;0.55;;
62588;SDS011;58504;48.770;9.148;2022-10-03T04:27:12;0.25;;;0.25;;
62588;SDS011;58504;48.770;9.148;2022-10-03T04:29:51;0.20;;;0.20;;
62588;SDS011;58504;48.770;9.148;2022-10-03T04:32:45;0.40;;;0.40;;
62588;SDS011;58504;48.770;9.148;2022-10-03T04:35:28;0.40;;;0.40;;
62588;SDS011;58504;48.770;9.148;2022-10-03T04:38:10;0.52;;;0.52;;
62588;SDS011;58504;48.770;9.148;2022-10-03T04:40:47;0.38;;;0.35;;
62588;SDS011;58504;48.770;9.148;2022-10-03T04:43:23;0.28;;;0.28;;
62588;SDS011;58504;48.770;9.148;2022-10-03T04:46:05;0.40;;;0.40;;
62588;SDS011;58504;48.770;9.148;2022-10-03T04:48:44;0.40;;;0.40;;
62588;SDS011;58504;48.770;9.148;2022-10-03T04:51:17;0.43;;;0.43;;
62588;SDS011;58504;48.770;9.148;2022-10-03T04:53:55;0.47;;;0.32;;
62588;SDS011;58504;48.770;9.148;2022-10-03T04:56:39;0.30;;;0.30;;
62588;SDS011;58504;48.770;9.148;2022-10-03T04:59:33;0.30;;;0.30;;
62588;SDS011;58504;48.770;9.148;2022-10-03T05:02:07;0.38;;;0.38;;
62588;SDS011;58504;48.770;9.148;2022-10-03T05:04:47;0.50;;;0.50;;
62588;SDS011;58504;48.770;9.148;2022-10-03T05:07:30;0.40;;;0.40;;
62588;SDS011;58504;48.770;9.148;2022-10-03T05:10:16;0.40;;;0.40;;
62588;SDS011;58504;48.770;9.148;2022-10-03T05:12:53;0.30;;;0.30;;
62588;SDS011;58504;48.770;9.148;2022-10-03T05:15:28;0.47;;;0.47;;
62588;SDS011;58504;48.770;9.148;2022-10-03T05:18:00;0.38;;;0.38;;
62588;SDS011;58504;48.770;9.148;2022-10-03T05:20:47;0.43;;;0.30;;
62588;SDS011;58504;48.770;9.148;2022-10-03T05:23:23;0.30;;;0.30;;
62588;SDS011;58504;48.770;9.148;2022-10-03T05:26:00;0.30;;;0.30;;
62588;SDS011;58504;48.770;9.148;2022-10-03T05:28:35;0.98;;;0.70;;
62588;SDS011;58504;48.770;9.148;2022-10-03T05:31:13;0.50;;;0.50;;
62588;SDS011;58504;48.770;9.148;2022-10-03T05:33:50;0.30;;;0.30;;
62588;SDS011;58504;48.770;9.148;2022-10-03T05:36:28;0.35;;;0.35;;
62588;SDS011;58504;48.770;9.148;2022-10-03T05:39:19;0.13;;;0.13;;
62588;SDS011;58504;48.770;9.148;2022-10-03T05:41:51;0.50;;;0.50;;
62588;SDS011;58504;48.770;9.148;2022-10-03T05:44:23;0.20;;;0.20;;
62588;SDS011;58504;48.770;9.148;2022-10-03T05:49:58;0.60;;;0.60;;
62588;SDS011;58504;48.770;9.148;2022-10-03T05:52:59;0.32;;;0.32;;
62588;SDS011;58504;48.770;9.148;2022-10-03T05:55:44;0.38;;;0.38;;
62588;SDS011;58504;48.770;9.148;2022-10-03T05:58:23;0.50;;;0.50;;
62588;SDS011;58504;48.770;9.148;2022-10-03T06:01:19;0.40;;;0.40;;
62588;SDS011;58504;48.770;9.148;2022-10-03T06:04:16;0.20;;;0.20;;
62588;SDS011;58504;48.770;9.148;2022-10-03T06:07:11;0.35;;;0.35;;
62588;SDS011;58504;48.770;9.148;2022-10-03T06:12:45;0.32;;;0.28;;
62588;SDS011;58504;48.770;9.148;2022-10-03T06:15:28;0.30;;;0.30;;
62588;SDS011;58504;48.770;9.148;2022-10-03T06:24:31;1.05;;;0.50;;
62588;SDS011;58504;48.770;9.148;2022-10-03T06:27:50;0.77;;;0.45;;
62588;SDS011;58504;48.770;9.148;2022-10-03T06:33:31;0.30;;;0.30;;
62588;SDS011;58504;48.770;9.148;2022-10-03T06:39:36;0.50;;;0.50;;
62588;SDS011;58504;48.770;9.148;2022-10-03T06:48:39;0.55;;;0.47;;
62588;SDS011;58504;48.770;9.148;2022-10-03T06:54:46;0.30;;;0.30;;
62588;SDS011;58504;48.770;9.148;2022-10-03T06:57:34;0.43;;;0.43;;
62588;SDS011;58504;48.770;9.148;2022-10-03T07:00:26;0.40;;;0.40;;
62588;SDS011;58504;48.770;9.148;2022-10-03T07:03:22;0.90;;;0.43;;
62588;SDS011;58504;48.770;9.148;2022-10-03T07:06:15;0.60;;;0.60;;
62588;SDS011;58504;48.770;9.148;2022-10-03T07:09:12;0.55;;;0.55;;
62588;SDS011;58504;48.770;9.148;2022-10-03T07:12:28;0.45;;;0.45;;
62588;SDS011;58504;48.770;9.148;2022-10-03T07:15:20;0.35;;;0.35;;
62588;SDS011;58504;48.770;9.148;2022-10-03T07:18:16;0.55;;;0.55;;
62588;SDS011;58504;48.770;9.148;2022-10-03T07:21:17;0.50;;;0.50;;
62588;SDS011;58504;48.770;9.148;2022-10-03T07:24:15;0.60;;;0.60;;
62588;SDS011;58504;48.770;9.148;2022-10-03T07:27:02;0.50;;;0.50;;
62588;SDS011;58504;48.770;9.148;2022-10-03T07:29:56;0.60;;;0.60;;
62588;SDS011;58504;48.770;9.148;2022-10-03T07:32:34;0.70;;;0.70;;
62588;SDS011;58504;48.770;9.148;2022-10-03T07:35:44;0.60;;;0.47;;
62588;SDS011;58504;48.770;9.148;2022-10-03T07:38:40;0.50;;;0.50;;
62588;SDS011;58504;48.770;9.148;2022-10-03T07:41:29;0.63;;;0.63;;
62588;SDS011;58504;48.770;9.148;2022-10-03T07:44:33;0.90;;;0.82;;
62588;SDS011;58504;48.770;9.148;2022-10-03T07:53:35;0.60;;;0.60;;
62588;SDS011;58504;48.770;9.148;2022-10-03T07:56:46;0.60;;;0.60;;
62588;SDS011;58504;48.770;9.148;2022-10-03T07:59:44;0.52;;;0.52;;
62588;SDS011;58504;48.770;9.148;2022-10-03T08:02:43;0.60;;;0.60;;
62588;SDS011;58504;48.770;9.148;2022-10-03T08:05:34;0.50;;;0.50;;
62588;SDS011;58504;48.770;9.148;2022-10-03T08:08:21;0.75;;;0.70;;
62588;SDS011;58504;48.770;9.148;2022-10-03T08:11:10;0.75;;;0.75;;
62588;SDS011;58504;48.770;9.148;2022-10-03T08:19:47;0.55;;;0.55;;
62588;SDS011;58504;48.770;9.148;2022-10-03T08:22:41;0.82;;;0.50;;
62588;SDS011;58504;48.770;9.148;2022-10-03T08:25:31;0.80;;;0.80;;
62588;SDS011;58504;48.770;9.148;2022-10-03T08:28:19;0.55;;;0.52;;
62588;SDS011;58504;48.770;9.148;2022-10-03T08:31:15;0.40;;;0.40;;
62588;SDS011;58504;48.770;9.148;2022-10-03T08:34:24;3.22;;;0.60;;
62588;SDS011;58504;48.770;9.148;2022-10-03T08:37:19;1.95;;;0.70;;
62588;SDS011;58504;48.770;9.148;2022-10-03T08:40:35;0.70;;;0.70;;
62588;SDS011;58504;48.770;9.148;2022-10-03T08:43:44;0.95;;;0.90;;
62588;SDS011;58504;48.770;9.148;2022-10-03T08:46:40;2.72;;;1.33;;
62588;SDS011;58504;48.770;9.148;2022-10-03T08:49:35;0.80;;;0.80;;
62588;SDS011;58504;48.770;9.148;2022-10-03T08:52:25;3.80;;;0.95;;
62588;SDS011;58504;48.770;9.148;2022-10-03T08:55:07;1.20;;;1.10;;
62588;SDS011;58504;48.770;9.148;2022-10-03T08:58:16;3.33;;;1.10;;
62588;SDS011;58504;48.770;9.148;2022-10-03T09:01:01;2.00;;;1.00;;
62588;SDS011;58504;48.770;9.148;2022-10-03T09:07:17;3.22;;;1.13;;
62588;SDS011;58504;48.770;9.148;2022-10-03T09:13:23;2.67;;;1.27;;
62588;SDS011;58504;48.770;9.148;2022-10-03T09:16:29;1.00;;;0.90;;
62588;SDS011;58504;48.770;9.148;2022-10-03T09:19:32;1.00;;;0.88;;
62588;SDS011;58504;48.770;9.148;2022-10-03T09:25:21;2.78;;;1.27;;
62588;SDS011;58504;48.770;9.148;2022-10-03T09:31:02;1.05;;;1.00;;
62588;SDS011;58504;48.770;9.148;2022-10-03T09:37:07;1.35;;;1.25;;
62588;SDS011;58504;48.770;9.148;2022-10-03T09:43:28;3.63;;;1.13;;
62588;SDS011;58504;48.770;9.148;2022-10-03T09:49:25;1.80;;;1.08;;
62588;SDS011;58504;48.770;9.148;2022-10-03T09:52:08;2.05;;;1.25;;
62588;SDS011;58504;48.770;9.148;2022-10-03T09:54:57;1.48;;;1.00;;
62588;SDS011;58504;48.770;9.148;2022-10-03T09:57:39;1.20;;;1.20;;
62588;SDS011;58504;48.770;9.148;2022-10-03T10:00:25;9.95;;;1.13;;
62588;SDS011;58504;48.770;9.148;2022-10-03T10:12:11;0.90;;;0.90;;
62588;SDS011;58504;48.770;9.148;2022-10-03T10:15:15;1.52;;;1.20;;
62588;SDS011;58504;48.770;9.148;2022-10-03T10:18:18;1.13;;;1.02;;
62588;SDS011;58504;48.770;9.148;2022-10-03T10:27:33;10.27;;;1.88;;
62588;SDS011;58504;48.770;9.148;2022-10-03T10:30:21;1.45;;;1.35;;
62588;SDS011;58504;48.770;9.148;2022-10-03T10:36:08;2.15;;;1.38;;
62588;SDS011;58504;48.770;9.148;2022-10-03T10:39:05;4.45;;;1.15;;
62588;SDS011;58504;48.770;9.148;2022-10-03T10:42:23;1.85;;;1.33;;
62588;SDS011;58504;48.770;9.148;2022-10-03T10:45:36;0.90;;;0.90;;
62588;SDS011;58504;48.770;9.148;2022-10-03T10:48:30;6.32;;;1.15;;
62588;SDS011;58504;48.770;9.148;2022-10-03T10:51:34;3.45;;;1.35;;
62588;SDS011;58504;48.770;9.148;2022-10-03T10:54:44;1.98;;;1.25;;
62588;SDS011;58504;48.770;9.148;2022-10-03T10:57:35;1.10;;;1.00;;
62588;SDS011;58504;48.770;9.148;2022-10-03T11:00:39;4.93;;;1.15;;
62588;SDS011;58504;48.770;9.148;2022-10-03T11:03:40;1.52;;;0.93;;
62588;SDS011;58504;48.770;9.148;2022-10-03T11:10:26;4.57;;;0.85;;
62588;SDS011;58504;48.770;9.148;2022-10-03T11:19:30;2.97;;;0.80;;
62588;SDS011;58504;48.770;9.148;2022-10-03T11:37:52;1.52;;;1.00;;
62588;SDS011;58504;48.770;9.148;2022-10-03T11:40:30;1.33;;;1.00;;
62588;SDS011;58504;48.770;9.148;2022-10-03T11:43:26;1.75;;;1.10;;
62588;SDS011;58504;48.770;9.148;2022-10-03T11:46:21;1.20;;;0.93;;
62588;SDS011;58504;48.770;9.148;2022-10-03T11:49:06;1.95;;;1.00;;
62588;SDS011;58504;48.770;9.148;2022-10-03T11:51:49;0.98;;;0.80;;
62588;SDS011;58504;48.770;9.148;2022-10-03T11:54:25;1.38;;;1.10;;
62588;SDS011;58504;48.770;9.148;2022-10-03T11:56:57;1.17;;;1.07;;
62588;SDS011;58504;48.770;9.148;2022-10-03T11:59:34;1.23;;;1.13;;
62588;SDS011;58504;48.770;9.148;2022-10-03T12:02:25;1.50;;;1.23;;
62588;SDS011;58504;48.770;9.148;2022-10-03T12:05:06;1.33;;;0.80;;
62588;SDS011;58504;48.770;9.148;2022-10-03T12:07:41;1.23;;;1.10;;
62588;SDS011;58504;48.770;9.148;2022-10-03T12:10:42;0.90;;;0.90;;
62588;SDS011;58504;48.770;9.148;2022-10-03T12:13:16;1.65;;;1.45;;
62588;SDS011;58504;48.770;9.148;2022-10-03T12:15:49;0.70;;;0.70;;
62588;SDS011;58504;48.770;9.148;2022-10-03T12:18:20;1.17;;;0.85;;
62588;SDS011;58504;48.770;9.148;2022-10-03T12:21:05;1.00;;;1.00;;
62588;SDS011;58504;48.770;9.148;2022-10-03T12:23:49;2.70;;;0.98;;
62588;SDS011;58504;48.770;9.148;2022-10-03T12:26:35;2.25;;;1.35;;
62588;SDS011;58504;48.770;9.148;2022-10-03T12:29:09;2.60;;;1.13;;
62588;SDS011;58504;48.770;9.148;2022-10-03T12:31:38;0.68;;;0.63;;
62588;SDS011;58504;48.770;9.148;2022-10-03T12:34:16;1.00;;;1.00;;
62588;SDS011;58504;48.770;9.148;2022-10-03T12:36:55;1.23;;;0.90;;
62588;SDS011;58504;48.770;9.148;2022-10-03T12:39:36;1.30;;;1.20;;
62588;SDS011;58504;48.770;9.148;2022-10-03T12:42:17;2.78;;;1.13;;
62588;SDS011;58504;48.770;9.148;2022-10-03T12:44:53;2.20;;;1.00;;
62588;SDS011;58504;48.770;9.148;2022-10-03T12:47:26;1.25;;;1.08;;
62588;SDS011;58504;48.770;9.148;2022-10-03T12:50:01;0.90;;;0.90;;
62588;SDS011;58504;48.770;9.148;2022-10-03T12:52:36;1.13;;;1.13;;
62588;SDS011;58504;48.770;9.148;2022-10-03T12:55:15;3.08;;;1.00;;
62588;SDS011;58504;48.770;9.148;2022-10-03T12:57:53;0.82;;;0.80;;
62588;SDS011;58504;48.770;9.148;2022-10-03T13:00:28;0.85;;;0.85;;
62588;SDS011;58504;48.770;9.148;2022-10-03T13:03:06;1.25;;;1.00;;
62588;SDS011;58504;48.770;9.148;2022-10-03T13:05:47;2.33;;;1.27;;
62588;SDS011;58504;48.770;9.148;2022-10-03T13:08:31;1.60;;;1.00;;
62588;SDS011;58504;48.770;9.148;2022-10-03T13:11:09;2.08;;;1.23;;
62588;SDS011;58504;48.770;9.148;2022-10-03T13:13:53;3.95;;;1.27;;
62588;SDS011;58504;48.770;9.148;2022-10-03T13:16:31;2.90;;;1.25;;
62588;SDS011;58504;48.770;9.148;2022-10-03T13:19:02;3.00;;;1.02;;
62588;SDS011;58504;48.770;9.148;2022-10-03T13:24:29;0.82;;;0.82;;
62588;SDS011;58504;48.770;9.148;2022-10-03T13:27:05;2.03;;;1.20;;
62588;SDS011;58504;48.770;9.148;2022-10-03T13:29:43;1.27;;;1.17;;
62588;SDS011;58504;48.770;9.148;2022-10-03T13:32:16;1.58;;;1.48;;
62588;SDS011;58504;48.770;9.148;2022-10-03T13:34:55;1.10;;;1.00;;
62588;SDS011;58504;48.770;9.148;2022-10-03T13:37:51;2.20;;;1.65;;
62588;SDS011;58504;48.770;9.148;2022-10-03T13:40:31;2.00;;;1.30;;
62588;SDS011;58504;48.770;9.148;2022-10-03T13:43:02;1.20;;;1.10;;
62588;SDS011;58504;48.770;9.148;2022-10-03T13:45:39;2.45;;;1.10;;
62588;SDS011;58504;48.770;9.148;2022-10-03T13:48:10;0.80;;;0.80;;
62588;SDS011;58504;48.770;9.148;2022-10-03T13:50:40;2.33;;;1.13;;
62588;SDS011;58504;48.770;9.148;2022-10-03T13:53:12;1.50;;;1.10;;
62588;SDS011;58504;48.770;9.148;2022-10-03T13:55:45;1.95;;;1.20;;
62588;SDS011;58504;48.770;9.148;2022-10-03T13:58:27;2.15;;;0.82;;
62588;SDS011;58504;48.770;9.148;2022-10-03T14:01:09;1.45;;;1.33;;
62588;SDS011;58504;48.770;9.148;2022-10-03T14:04:09;2.03;;;1.30;;
62588;SDS011;58504;48.770;9.148;2022-10-03T14:06:50;1.40;;;1.30;;
62588;SDS011;58504;48.770;9.148;2022-10-03T14:09:28;1.05;;;1.05;;
62588;SDS011;58504;48.770;9.148;2022-10-03T14:12:09;2.10;;;1.20;;
62588;SDS011;58504;48.770;9.148;2022-10-03T14:17:40;2.60;;;1.20;;
62588;SDS011;58504;48.770;9.148;2022-10-03T14:20:18;3.28;;;1.52;;
62588;SDS011;58504;48.770;9.148;2022-10-03T14:22:56;1.73;;;1.38;;
62588;SDS011;58504;48.770;9.148;2022-10-03T14:25:38;1.40;;;1.30;;
62588;SDS011;58504;48.770;9.148;2022-10-03T14:28:13;1.48;;;1.20;;
62588;SDS011;58504;48.770;9.148;2022-10-03T14:30:47;2.55;;;1.40;;
62588;SDS011;58504;48.770;9.148;2022-10-03T14:33:24;1.10;;;1.00;;
62588;SDS011;58504;48.770;9.148;2022-10-03T14:36:01;1.30;;;1.02;;
62588;SDS011;58504;48.770;9.148;2022-10-03T14:38:46;2.00;;;1.77;;
62588;SDS011;58504;48.770;9.148;2022-10-03T14:41:28;3.55;;;1.30;;
62588;SDS011;58504;48.770;9.148;2022-10-03T14:44:12;7.65;;;2.10;;
62588;SDS011;58504;48.770;9.148;2022-10-03T14:46:46;2.28;;;1.30;;
62588;SDS011;58504;48.770;9.148;2022-10-03T14:49:18;2.42;;;1.70;;
62588;SDS011;58504;48.770;9.148;2022-10-03T14:51:49;6.15;;;2.10;;
62588;SDS011;58504;48.770;9.148;2022-10-03T14:54:19;1.60;;;1.40;;
62588;SDS011;58504;48.770;9.148;2022-10-03T14:56:48;3.55;;;1.77;;
62588;SDS011;58504;48.770;9.148;2022-10-03T14:59:18;2.35;;;2.13;;
62588;SDS011;58504;48.770;9.148;2022-10-03T15:01:47;2.03;;;1.65;;
62588;SDS011;58504;48.770;9.148;2022-10-03T15:04:22;2.90;;;1.95;;
62588;SDS011;58504;48.770;9.148;2022-10-03T15:06:56;5.53;;;2.15;;
62588;SDS011;58504;48.770;9.148;2022-10-03T15:09:27;1.83;;;1.73;;
62588;SDS011;58504;48.770;9.148;2022-10-03T15:14:29;3.63;;;1.63;;
62588;SDS011;58504;48.770;9.148;2022-10-03T15:16:59;5.22;;;2.08;;
62588;SDS011;58504;48.770;9.148;2022-10-03T15:19:31;5.25;;;1.90;;
62588;SDS011;58504;48.770;9.148;2022-10-03T15:23:35;3.85;;;1.60;;
62588;SDS011;58504;48.770;9.148;2022-10-03T15:26:07;2.40;;;1.98;;
62588;SDS011;58504;48.770;9.148;2022-10-03T15:28:38;4.75;;;2.55;;
62588;SDS011;58504;48.770;9.148;2022-10-03T15:31:08;2.47;;;1.98;;
62588;SDS011;58504;48.770;9.148;2022-10-03T15:33:38;4.93;;;1.90;;
62588;SDS011;58504;48.770;9.148;2022-10-03T15:36:10;2.67;;;1.88;;
62588;SDS011;58504;48.770;9.148;2022-10-03T15:38:42;3.70;;;1.50;;
62588;SDS011;58504;48.770;9.148;2022-10-03T15:43:42;4.05;;;2.53;;
62588;SDS011;58504;48.770;9.148;2022-10-03T15:46:20;3.10;;;2.17;;
62588;SDS011;58504;48.770;9.148;2022-10-03T15:48:54;2.60;;;1.83;;
62588;SDS011;58504;48.770;9.148;2022-10-03T15:51:23;5.22;;;2.22;;
62588;SDS011;58504;48.770;9.148;2022-10-03T15:53:54;2.60;;;2.17;;
62588;SDS011;58504;48.770;9.148;2022-10-03T15:56:27;2.47;;;2.28;;
62588;SDS011;58504;48.770;9.148;2022-10-03T15:58:59;4.55;;;2.38;;
62588;SDS011;58504;48.770;9.148;2022-10-03T16:01:30;2.80;;;2.60;;
62588;SDS011;58504;48.770;9.148;2022-10-03T16:04:02;3.33;;;2.08;;
62588;SDS011;58504;48.770;9.148;2022-10-03T16:06:32;3.63;;;2.17;;
62588;SDS011;58504;48.770;9.148;2022-10-03T16:09:08;2.60;;;1.85;;
62588;SDS011;58504;48.770;9.148;2022-10-03T16:11:44;3.15;;;2.33;;
62588;SDS011;58504;48.770;9.148;2022-10-03T16:14:19;3.97;;;2.25;;
62588;SDS011;58504;48.770;9.148;2022-10-03T16:16:50;2.70;;;2.05;;
62588;SDS011;58504;48.770;9.148;2022-10-03T16:19:24;3.90;;;2.03;;
62588;SDS011;58504;48.770;9.148;2022-10-03T16:21:57;3.28;;;2.25;;
62588;SDS011;58504;48.770;9.148;2022-10-03T16:24:44;4.55;;;2.63;;
62588;SDS011;58504;48.770;9.148;2022-10-03T16:27:23;2.95;;;2.30;;
62588;SDS011;58504;48.770;9.148;2022-10-03T16:29:55;2.03;;;1.83;;
62588;SDS011;58504;48.770;9.148;2022-10-03T16:32:26;2.55;;;2.30;;
62588;SDS011;58504;48.770;9.148;2022-10-03T16:34:56;3.35;;;2.00;;
62588;SDS011;58504;48.770;9.148;2022-10-03T16:37:27;2.33;;;2.13;;
62588;SDS011;58504;48.770;9.148;2022-10-03T16:39:58;5.65;;;2.17;;
62588;SDS011;58504;48.770;9.148;2022-10-03T16:42:34;4.05;;;2.13;;
62588;SDS011;58504;48.770;9.148;2022-10-03T16:45:04;2.28;;;1.90;;
62588;SDS011;58504;48.770;9.148;2022-10-03T16:47:46;4.03;;;2.40;;
62588;SDS011;58504;48.770;9.148;2022-10-03T16:50:35;1.60;;;1.50;;
62588;SDS011;58504;48.770;9.148;2022-10-03T16:53:07;2.90;;;2.17;;
62588;SDS011;58504;48.770;9.148;2022-10-03T16:55:40;1.88;;;1.60;;
62588;SDS011;58504;48.770;9.148;2022-10-03T16:58:14;2.00;;;1.75;;
62588;SDS011;58504;48.770;9.148;2022-10-03T17:00:48;2.10;;;1.80;;
62588;SDS011;58504;48.770;9.148;2022-10-03T17:03:18;2.40;;;1.95;;
62588;SDS011;58504;48.770;9.148;2022-10-03T17:05:48;2.78;;;1.65;;
62588;SDS011;58504;48.770;9.148;2022-10-03T17:08:18;2.60;;;1.40;;
62588;SDS011;58504;48.770;9.148;2022-10-03T17:10:52;3.63;;;1.80;;
62588;SDS011;58504;48.770;9.148;2022-10-03T17:13:21;3.70;;;1.77;;
62588;SDS011;58504;48.770;9.148;2022-10-03T17:15:54;1.88;;;1.77;;
62588;SDS011;58504;48.770;9.148;2022-10-03T17:18:26;2.15;;;1.70;;
62588;SDS011;58504;48.770;9.148;2022-10-03T17:21:00;1.98;;;1.80;;
62588;SDS011;58504;48.770;9.148;2022-10-03T17:23:32;2.80;;;1.95;;
62588;SDS011;58504;48.770;9.148;2022-10-03T17:26:06;2.37;;;1.67;;
62588;SDS011;58504;48.770;9.148;2022-10-03T17:28:39;1.98;;;1.73;;
62588;SDS011;58504;48.770;9.148;2022-10-03T17:31:18;1.95;;;1.70;;
62588;SDS011;58504;48.770;9.148;2022-10-03T17:33:52;1.88;;;1.65;;
62588;SDS011;58504;48.770;9.148;2022-10-03T17:36:35;1.77;;;1.67;;
62588;SDS011;58504;48.770;9.148;2022-10-03T17:39:12;3.97;;;2.05;;
62588;SDS011;58504;48.770;9.148;2022-10-03T17:41:49;2.35;;;1.60;;
62588;SDS011;58504;48.770;9.148;2022-10-03T17:44:25;3.72;;;1.50;;
62588;SDS011;58504;48.770;9.148;2022-10-03T17:47:01;2.25;;;1.70;;
62588;SDS011;58504;48.770;9.148;2022-10-03T17:49:41;2.80;;;2.13;;
62588;SDS011;58504;48.770;9.148;2022-10-03T17:52:15;3.90;;;2.10;;
62588;SDS011;58504;48.770;9.148;2022-10-03T17:54:45;2.30;;;1.80;;
62588;SDS011;58504;48.770;9.148;2022-10-03T17:57:16;3.50;;;2.30;;
62588;SDS011;58504;48.770;9.148;2022-10-03T17:59:49;3.35;;;1.90;;
62588;SDS011;58504;48.770;9.148;2022-10-03T18:02:22;2.22;;;2.00;;
62588;SDS011;58504;48.770;9.148;2022-10-03T18:04:55;3.95;;;2.10;;
62588;SDS011;58504;48.770;9.148;2022-10-03T18:07:26;7.32;;;2.28;;
62588;SDS011;58504;48.770;9.148;2022-10-03T18:09:55;4.93;;;2.17;;
62588;SDS011;58504;48.770;9.148;2022-10-03T18:12:26;2.55;;;2.17;;
62588;SDS011;58504;48.770;9.148;2022-10-03T18:15:05;2.50;;;2.30;;
62588;SDS011;58504;48.770;9.148;2022-10-03T18:18:01;4.97;;;2.20;;
62588;SDS011;58504;48.770;9.148;2022-10-03T18:20:46;5.80;;;2.45;;
62588;SDS011;58504;48.770;9.148;2022-10-03T18:23:18;3.60;;;2.70;;
62588;SDS011;58504;48.770;9.148;2022-10-03T18:25:50;4.80;;;2.38;;
62588;SDS011;58504;48.770;9.148;2022-10-03T18:29:50;10.07;;;2.47;;
62588;SDS011;58504;48.770;9.148;2022-10-03T18:32:21;21.90;;;3.05;;
62588;SDS011;58504;48.770;9.148;2022-10-03T18:34:56;9.07;;;2.25;;
62588;SDS011;58504;48.770;9.148;2022-10-03T18:40:24;2.97;;;1.73;;
62588;SDS011;58504;48.770;9.148;2022-10-03T18:42:53;6.82;;;2.63;;
62588;SDS011;58504;48.770;9.148;2022-10-03T18:45:22;6.30;;;2.03;;
62588;SDS011;58504;48.770;9.148;2022-10-03T18:50:21;2.50;;;1.70;;
62588;SDS011;58504;48.770;9.148;2022-10-03T18:52:54;2.10;;;1.73;;
62588;SDS011;58504;48.770;9.148;2022-10-03T18:55:26;5.35;;;2.35;;
62588;SDS011;58504;48.770;9.148;2022-10-03T18:57:57;5.65;;;2.22;;
62588;SDS011;58504;48.770;9.148;2022-10-03T19:00:31;2.53;;;2.33;;
62588;SDS011;58504;48.770;9.148;2022-10-03T19:03:08;3.15;;;1.58;;